Time;durP1;ratioP1;P1;durP2;ratioP2;P2;SDS_P1;SDS_P2;PMS_P1;PMS_P2;Temp;Humidity;BMP_temperature;BMP_pressure;BME280_temperature;BME280_humidity;BME280_pressure;Samples;Min_cycle;Max_cycle;Signal;HPM_P1;HPM_P2
2020/12/16 00:00:44;;;;;;;23.40;5.65;;;;;;;;;;4734890;30;20063;-89
2020/12/16 00:03:17;;;;;;;23.27;7.53;;;;;;;;;;4738976;30;20067;-89
2020/12/16 00:06:03;;;;;;;26.70;6.97;;;7.10;99.90;;;;;;4751223;30;20059;-89
2020/12/16 00:08:37;;;;;;;16.70;4.47;;;7.10;99.90;;;;;;4732668;30;20049;-89
2020/12/16 00:11:07;;;;;;;25.75;6.07;;;;;;;;;;4722946;30;20107;-90
2020/12/16 00:13:35;;;;;;;25.33;5.95;;;;;;;;;;4748021;30;20059;-90
2020/12/16 00:16:11;;;;;;;19.17;6.22;;;;;;;;;;4734870;30;20060;-90
2020/12/16 00:18:43;;;;;;;17.40;6.22;;;7.10;99.90;;;;;;4750043;30;20101;-89
2020/12/16 00:21:22;;;;;;;21.15;6.00;;;7.10;99.90;;;;;;4765975;30;20086;-90
2020/12/16 00:23:53;;;;;;;16.50;7.57;;;;;;;;;;4756907;30;20075;-88
2020/12/16 00:26:23;;;;;;;19.52;5.60;;;;;;;;;;4770795;30;20072;-89
2020/12/16 00:28:52;;;;;;;36.08;7.65;;;;;;;;;;4741635;30;20064;-88
2020/12/16 00:31:21;;;;;;;16.27;6.85;;;;;;;;;;4753150;30;20056;-87
2020/12/16 00:34:12;;;;;;;30.00;7.93;;;;;;;;;;4729038;30;20406;-90
2020/12/16 00:36:45;;;;;;;16.10;4.63;;;;;;;;;;4715218;30;20061;-89
2020/12/16 00:39:14;;;;;;;24.58;4.70;;;;;;;;;;4712262;30;20590;-89
2020/12/16 00:41:44;;;;;;;22.55;5.05;;;;;;;;;;4698169;30;20049;-91
2020/12/16 00:44:15;;;;;;;19.17;7.75;;;;;;;;;;4717432;30;20059;-90
2020/12/16 00:46:44;;;;;;;28.17;6.60;;;;;;;;;;4721490;30;20080;-88
2020/12/16 00:49:14;;;;;;;18.67;5.00;;;;;;;;;;4736131;30;20099;-89
2020/12/16 00:51:42;;;;;;;12.00;3.63;;;;;;;;;;4720958;30;20057;-89
2020/12/16 00:54:12;;;;;;;15.13;4.65;;;;;;;;;;4735608;30;20064;-89
2020/12/16 00:56:44;;;;;;;17.27;5.00;;;;;;;;;;4726332;30;20065;-88
2020/12/16 00:59:11;;;;;;;19.75;7.03;;;;;;;;;;4707871;30;20056;-89
2020/12/16 01:01:45;;;;;;;19.38;5.40;;;7.80;99.90;;;;;;4750501;30;20049;-88
2020/12/16 01:04:17;;;;;;;17.17;6.03;;;;;;;;;;4739841;30;20057;-88
2020/12/16 01:06:47;;;;;;;14.60;5.90;;;;;;;;;;4728490;30;20058;-89
2020/12/16 01:09:19;;;;;;;32.17;5.97;;;;;;;;;;4715942;30;20320;-88
2020/12/16 01:11:54;;;;;;;14.48;5.15;;;;;;;;;;4731528;30;20129;-87
2020/12/16 01:14:27;;;;;;;15.05;4.55;;;;;;;;;;4732390;30;20489;-88
2020/12/16 01:17:00;;;;;;;25.67;4.43;;;;;;;;;;4732443;30;20053;-89
2020/12/16 01:19:36;;;;;;;16.95;4.50;;;;;;;;;;4714947;30;20064;-88
2020/12/16 01:22:11;;;;;;;13.45;4.80;;;;;;;;;;4743256;30;20052;-89
2020/12/16 01:24:46;;;;;;;17.63;4.60;;;;;;;;;;4719035;30;20056;-90
2020/12/16 01:27:17;;;;;;;22.07;6.23;;;;;;;;;;4722605;30;20072;-88
2020/12/16 01:29:53;;;;;;;20.27;4.35;;;;;;;;;;4726295;30;20065;-89
2020/12/16 01:32:25;;;;;;;18.70;5.00;;;;;;;;;;4712532;30;20064;-89
2020/12/16 01:34:54;;;;;;;17.75;4.43;;;7.80;99.90;;;;;;4730096;30;20804;-90
2020/12/16 01:37:22;;;;;;;16.35;4.40;;;;;;;;;;4745173;30;20065;-88
2020/12/16 01:39:59;;;;;;;20.38;7.25;;;;;;;;;;4738209;30;20239;-89
2020/12/16 01:42:37;;;;;;;15.10;6.07;;;7.80;99.90;;;;;;4715207;30;20056;-90
2020/12/16 01:45:14;;;;;;;17.17;5.60;;;7.80;99.90;;;;;;4723909;30;20057;-88
2020/12/16 01:48:14;;;;;;;19.27;4.47;;;7.80;99.90;;;;;;4731284;30;20056;-90
2020/12/16 01:50:44;;;;;;;17.80;7.57;;;;;;;;;;4730244;30;20064;-89
2020/12/16 01:53:29;;;;;;;10.48;3.28;;;;;;;;;;4718032;30;20067;-88
2020/12/16 01:55:59;;;;;;;16.02;4.22;;;;;;;;;;4719403;30;20057;-90
2020/12/16 01:58:52;;;;;;;18.40;4.35;;;7.80;99.90;;;;;;4710081;30;20418;-90
2020/12/16 02:01:24;;;;;;;10.52;3.78;;;7.80;99.90;;;;;;4710953;30;20077;-88
2020/12/16 02:04:45;;;;;;;22.83;4.50;;;7.70;99.90;;;;;;4732128;30;20071;-89
2020/12/16 02:07:28;;;;;;;15.57;6.10;;;;;;;;;;4706461;30;20045;-89
2020/12/16 02:09:59;;;;;;;17.48;4.57;;;;;;;;;;4742483;30;20059;-90
2020/12/16 02:12:35;;;;;;;19.13;4.35;;;7.70;99.90;;;;;;4717182;24;20060;-90
2020/12/16 02:15:38;;;;;;;17.13;4.22;;;;;;;;;;4771218;30;20060;-89
2020/12/16 02:18:17;;;;;;;26.50;7.00;;;;;;;;;;4749565;30;20063;-90
2020/12/16 02:20:50;;;;;;;20.75;6.35;;;;;;;;;;4736416;30;20052;-90
2020/12/16 02:23:42;;;;;;;29.63;4.45;;;7.90;99.90;;;;;;4745666;30;20055;-91
2020/12/16 02:26:24;;;;;;;18.05;6.13;;;;;;;;;;4762887;30;20411;-90
2020/12/16 02:29:07;;;;;;;12.88;4.18;;;7.90;99.90;;;;;;4744255;30;20054;-90
2020/12/16 02:31:45;;;;;;;26.63;8.15;;;8.00;99.90;;;;;;4755135;30;20069;-87
2020/12/16 02:34:28;;;;;;;19.58;5.88;;;;;;;;;;4840968;24;20040;-89
2020/12/16 02:36:59;;;;;;;23.52;3.42;;;;;;;;;;4733857;30;20064;-90
2020/12/16 02:39:43;;;;;;;19.35;5.00;;;;;;;;;;4739977;30;20070;-90
2020/12/16 02:42:28;;;;;;;22.20;5.00;;;8.10;99.90;;;;;;4738020;30;20226;-88
2020/12/16 02:45:02;;;;;;;21.27;5.93;;;;;;;;;;4748062;30;20068;-89
2020/12/16 02:47:38;;;;;;;19.70;4.97;;;;;;;;;;4745499;30;20612;-89
2020/12/16 02:50:14;;;;;;;18.55;4.30;;;;;;;;;;4731204;30;20143;-89
2020/12/16 02:52:46;;;;;;;26.13;5.55;;;;;;;;;;4712510;30;20075;-90
2020/12/16 02:55:18;;;;;;;;;;;8.50;99.90;;;;;;4745468;30;20071;-89
2020/12/16 02:57:59;;;;;;;14.23;3.13;;;;;;;;;;4730374;30;19927;-90
2020/12/16 03:00:28;;;;;;;15.75;5.57;;;;;;;;;;4716408;30;20049;-90
2020/12/16 03:03:20;;;;;;;34.97;8.43;;;;;;;;;;4735827;30;20060;-90
2020/12/16 03:06:01;;;;;;;;;;;8.30;99.90;;;;;;4748248;30;20075;-90
2020/12/16 03:08:48;;;;;;;21.40;4.25;;;;;;;;;;4721267;30;20349;-90
2020/12/16 03:11:21;;;;;;;22.98;5.68;;;;;;;;;;4731971;30;20067;-90
2020/12/16 03:13:54;;;;;;;23.67;4.65;;;;;;;;;;4717556;30;20068;-91
2020/12/16 03:16:38;;;;;;;24.52;4.60;;;;;;;;;;4755020;30;20060;-89
2020/12/16 03:19:16;;;;;;;45.53;8.07;;;;;;;;;;4735768;30;20052;-90
2020/12/16 03:21:45;;;;;;;22.80;4.07;;;;;;;;;;4742128;30;20055;-90
2020/12/16 03:24:36;;;;;;;20.08;6.97;;;;;;;;;;4746935;30;20166;-89
2020/12/16 03:27:15;;;;;;;10.40;2.92;;;;;;;;;;4745469;30;20049;-89
2020/12/16 03:29:54;;;;;;;18.65;4.13;;;;;;;;;;4715181;30;20065;-89
2020/12/16 03:32:38;;;;;;;19.55;4.78;;;;;;;;;;4720921;30;20057;-90
2020/12/16 03:35:17;;;;;;;6.22;3.10;;;;;;;;;;4705456;30;20064;-89
2020/12/16 03:37:47;;;;;;;12.90;4.70;;;;;;;;;;4698416;30;20065;-91
2020/12/16 03:40:20;;;;;;;13.40;3.95;;;;;;;;;;4714994;30;20228;-90
2020/12/16 03:43:01;;;;;;;;;;;8.60;99.90;;;;;;4718944;30;20065;-93
2020/12/16 03:45:32;;;;;;;18.13;6.30;;;;;;;;;;4713174;30;19931;-88
2020/12/16 03:48:04;;;;;;;21.00;6.40;;;;;;;;;;4742250;30;20060;-91
2020/12/16 03:50:35;;;;;;;18.60;4.38;;;;;;;;;;4711732;30;20053;-89
2020/12/16 03:53:04;;;;;;;15.80;2.53;;;;;;;;;;4713323;30;20052;-87
2020/12/16 03:55:53;;;;;;;28.00;4.00;;;;;;;;;;4708565;30;20421;-89
2020/12/16 03:58:48;;;;;;;12.68;3.17;;;8.70;99.90;;;;;;4700992;30;20061;-88
2020/12/16 04:01:44;;;;;;;11.40;4.25;;;;;;;;;;4704390;30;20057;-90
2020/12/16 04:04:16;;;;;;;15.05;3.50;;;;;;;;;;4721513;30;20071;-89
2020/12/16 04:06:57;;;;;;;14.73;5.25;;;8.80;99.90;;;;;;4743065;30;20056;-90
2020/12/16 04:09:32;;;;;;;26.58;4.75;;;;;;;;;;4688240;30;20147;-89
2020/12/16 04:12:04;;;;;;;10.63;3.80;;;;;;;;;;4713384;30;20052;-91
2020/12/16 04:14:39;;;;;;;30.23;6.45;;;;;;;;;;4732147;30;20064;-91
2020/12/16 04:17:11;;;;;;;12.68;3.90;;;;;;;;;;4711107;30;20069;-89
2020/12/16 04:20:18;;;;;;;11.52;3.35;;;;;;;;;;4705116;30;20070;-89
2020/12/16 04:22:58;;;;;;;10.95;3.42;;;;;;;;;;4716127;30;20049;-89
2020/12/16 04:25:27;;;;;;;12.32;3.72;;;;;;;;;;4708471;30;20072;-90
2020/12/16 04:27:58;;;;;;;13.27;3.65;;;;;;;;;;4725772;30;20060;-90
2020/12/16 04:30:30;;;;;;;11.00;5.63;;;;;;;;;;4729886;30;20069;-90
2020/12/16 04:33:02;;;;;;;19.08;3.90;;;;;;;;;;4703122;30;20303;-90
2020/12/16 04:35:33;;;;;;;9.43;3.42;;;;;;;;;;4708652;30;20057;-89
2020/12/16 04:38:02;;;;;;;18.83;4.13;;;;;;;;;;4703081;30;20062;-89
2020/12/16 04:40:36;;;;;;;17.23;3.40;;;;;;;;;;4718318;30;20061;-90
2020/12/16 04:43:15;;;;;;;15.27;3.95;;;8.90;99.90;;;;;;4692755;30;20053;-88
2020/12/16 04:45:45;;;;;;;10.55;3.17;;;;;;;;;;4712427;30;20060;-91
2020/12/16 04:48:18;;;;;;;9.68;2.83;;;9.00;99.90;;;;;;4712797;30;20071;-89
2020/12/16 04:51:04;;;;;;;15.35;4.20;;;;;;;;;;4692887;30;20075;-89
2020/12/16 04:53:33;;;;;;;15.77;3.33;;;;;;;;;;4697685;30;20060;-88
2020/12/16 04:56:12;;;;;;;12.38;4.60;;;9.00;99.90;;;;;;4729913;30;20068;-89
2020/12/16 04:59:18;;;;;;;14.07;3.88;;;;;;;;;;4696351;30;20064;-89
2020/12/16 05:02:03;;;;;;;18.42;4.68;;;8.80;99.90;;;;;;4700166;30;20107;-89
2020/12/16 05:04:53;;;;;;;11.48;2.90;;;;;;;;;;4706669;30;20110;-88
2020/12/16 05:07:30;;;;;;;8.80;3.53;;;;;;;;;;4705680;30;20074;-89
2020/12/16 05:09:59;;;;;;;13.35;4.20;;;;;;;;;;4690138;30;20267;-90
2020/12/16 05:12:29;;;;;;;5.88;2.72;;;;;;;;;;4707874;30;20072;-90
2020/12/16 05:14:59;;;;;;;8.88;3.28;;;;;;;;;;4719519;30;20057;-90
2020/12/16 05:17:28;;;;;;;9.77;4.05;;;;;;;;;;4735089;30;20056;-90
2020/12/16 05:20:27;;;;;;;22.77;4.15;;;8.80;99.90;;;;;;4383994;30;9999575;-90
2020/12/16 05:22:59;;;;;;;8.63;2.85;;;8.60;99.90;;;;;;4706211;30;20068;-91
2020/12/16 05:25:35;;;;;;;12.25;3.88;;;8.80;99.90;;;;;;4726733;30;20072;-89
2020/12/16 05:28:06;;;;;;;16.07;4.77;;;8.70;99.90;;;;;;4740992;30;20056;-89
2020/12/16 05:30:35;;;;;;;16.58;4.10;;;;;;;;;;4742614;30;20079;-90
2020/12/16 05:33:04;;;;;;;9.27;3.38;;;;;;;;;;4718514;24;20653;-90
2020/12/16 05:35:36;;;;;;;16.40;3.63;;;;;;;;;;4724207;30;20499;-91
2020/12/16 05:38:05;;;;;;;9.70;3.55;;;;;;;;;;4724609;30;20053;-90
2020/12/16 05:40:38;;;;;;;17.02;3.67;;;8.70;99.90;;;;;;4713415;30;20057;-89
2020/12/16 05:43:09;;;;;;;20.83;4.53;;;;;;;;;;4704781;30;20062;-89
2020/12/16 05:45:40;;;;;;;12.80;3.75;;;8.70;99.90;;;;;;4728696;30;20141;-90
2020/12/16 05:48:13;;;;;;;11.07;4.28;;;8.60;99.90;;;;;;4721815;30;20058;-90
2020/12/16 05:50:56;;;;;;;15.85;5.00;;;8.50;99.90;;;;;;4694322;30;20056;-90
2020/12/16 05:53:27;;;;;;;17.98;4.00;;;8.70;99.90;;;;;;4723651;30;20057;-89
2020/12/16 05:56:04;;;;;;;10.20;3.42;;;8.50;99.90;;;;;;4723449;30;20070;-90
2020/12/16 05:58:35;;;;;;;16.48;3.78;;;;;;;;;;4723028;30;20060;-89
2020/12/16 06:01:06;;;;;;;11.65;3.17;;;8.60;99.90;;;;;;4712829;30;20487;-89
2020/12/16 06:03:35;;;;;;;13.65;4.65;;;;;;;;;;4713912;30;20057;-90
2020/12/16 06:06:06;;;;;;;16.08;3.33;;;8.70;99.90;;;;;;4732111;30;20058;-90
2020/12/16 06:08:43;;;;;;;9.38;4.03;;;8.50;99.90;;;;;;4712393;30;20069;-90
2020/12/16 06:11:12;;;;;;;15.52;5.82;;;8.50;99.90;;;;;;4710315;30;20049;-90
2020/12/16 06:13:46;;;;;;;19.52;4.75;;;8.70;99.90;;;;;;4734944;30;20070;-89
2020/12/16 06:16:14;;;;;;;11.07;3.13;;;;;;;;;;4720873;30;20111;-89
2020/12/16 06:18:44;;;;;;;14.48;4.53;;;;;;;;;;4721649;30;20061;-88
2020/12/16 06:21:14;;;;;;;9.68;3.28;;;8.70;99.90;;;;;;4723977;30;20060;-90
2020/12/16 06:23:46;;;;;;;9.93;3.50;;;8.70;99.90;;;;;;4701857;30;20053;-89
2020/12/16 06:26:17;;;;;;;19.83;4.10;;;8.70;99.90;;;;;;4723050;30;20064;-90
2020/12/16 06:28:45;;;;;;;17.23;3.78;;;8.80;99.90;;;;;;4718622;30;20061;-88
2020/12/16 06:31:20;;;;;;;21.20;4.60;;;;;;;;;;4723473;30;20052;-90
2020/12/16 06:33:57;;;;;;;12.75;3.92;;;8.70;99.90;;;;;;4729112;30;20426;-90
2020/12/16 06:36:33;;;;;;;16.90;3.95;;;;;;;;;;4686448;30;20057;-89
2020/12/16 06:39:22;;;;;;;18.20;5.03;;;8.70;99.90;;;;;;4691518;30;20549;-90
2020/12/16 06:41:58;;;;;;;10.90;3.55;;;8.80;99.90;;;;;;4683691;30;20049;-89
2020/12/16 06:44:32;;;;;;;17.08;5.30;;;8.70;99.90;;;;;;4720771;30;20062;-89
2020/12/16 06:47:03;;;;;;;17.13;4.97;;;;;;;;;;4717516;30;20045;-88
2020/12/16 06:49:35;;;;;;;8.10;3.55;;;8.70;99.90;;;;;;4707386;30;20065;-88
2020/12/16 06:52:09;;;;;;;12.52;4.43;;;8.80;99.90;;;;;;4690915;30;20057;-92
2020/12/16 06:54:52;;;;;;;16.52;6.18;;;8.70;99.90;;;;;;4710349;30;20076;-90
2020/12/16 06:57:29;;;;;;;10.30;4.18;;;8.70;99.90;;;;;;4700598;30;20054;-88
2020/12/16 07:00:03;;;;;;;10.73;4.13;;;;;;;;;;4720419;30;20057;-90
2020/12/16 07:02:34;;;;;;;12.02;4.60;;;8.60;99.90;;;;;;4695019;30;20064;-90
2020/12/16 07:05:05;;;;;;;18.10;4.80;;;8.50;99.90;;;;;;4736608;30;20053;-90
2020/12/16 07:07:54;;;;;;;16.48;6.07;;;8.60;99.90;;;;;;4689379;30;20057;-89
2020/12/16 07:10:36;;;;;;;12.20;4.32;;;;;;;;;;4714607;30;20056;-90
2020/12/16 07:13:23;;;;;;;7.90;3.38;;;;;;;;;;4732087;30;20057;-89
2020/12/16 07:16:10;;;;;;;8.63;4.05;;;8.50;99.90;;;;;;4711293;30;20057;-91
2020/12/16 07:18:46;;;;;;;12.88;4.00;;;8.50;99.90;;;;;;4695616;30;20049;-93
2020/12/16 07:21:22;;;;;;;13.13;4.15;;;8.50;99.90;;;;;;4707577;30;20053;-88
2020/12/16 07:24:14;;;;;;;11.05;4.78;;;8.50;99.90;;;;;;4712319;30;20065;-91
2020/12/16 07:26:56;;;;;;;;;;;8.40;99.90;;;;;;4709379;30;20065;-87
2020/12/16 07:29:37;;;;;;;7.47;4.07;;;8.50;99.90;;;;;;4732921;30;19938;-89
2020/12/16 07:32:10;;;;;;;17.65;5.40;;;8.40;99.90;;;;;;4683748;30;20298;-89
2020/12/16 07:35:00;;;;;;;17.83;5.53;;;8.40;99.90;;;;;;4699714;30;20061;-87
2020/12/16 07:37:33;;;;;;;14.73;4.78;;;;;;;;;;4712736;30;20057;-89
2020/12/16 07:40:28;;;;;;;13.57;5.32;;;8.30;99.90;;;;;;4719728;30;20092;-91
2020/12/16 07:43:09;;;;;;;13.73;3.83;;;8.40;99.90;;;;;;4727151;30;20074;-88
2020/12/16 07:45:39;;;;;;;11.60;3.95;;;;;;;;;;4699216;30;20057;-89
2020/12/16 07:48:07;;;;;;;12.40;5.57;;;;;;;;;;4715276;30;20065;-90
2020/12/16 07:50:36;;;;;;;12.30;6.13;;;;;;;;;;4724043;30;20076;-89
2020/12/16 07:53:07;;;;;;;11.90;5.10;;;;;;;;;;4716449;30;20071;-89
2020/12/16 07:55:40;;;;;;;18.40;6.70;;;;;;;;;;4729809;30;20048;-90
2020/12/16 07:58:16;;;;;;;10.85;4.85;;;;;;;;;;4706054;30;20340;-91
2020/12/16 08:01:13;;;;;;;25.85;5.80;;;;;;;;;;4726445;30;20425;-90
2020/12/16 08:03:47;;;;;;;26.88;6.15;;;8.40;99.90;;;;;;4723494;30;20065;-89
2020/12/16 08:06:16;;;;;;;18.30;5.80;;;;;;;;;;4705767;30;20062;-89
2020/12/16 08:08:43;;;;;;;18.95;4.50;;;;;;;;;;4713152;30;20069;-89
2020/12/16 08:11:17;;;;;;;7.43;3.30;;;8.50;99.90;;;;;;4713452;30;20062;-90
2020/12/16 08:13:51;;;;;;;16.58;3.63;;;;;;;;;;4704357;30;20041;-87
2020/12/16 08:16:20;;;;;;;16.25;7.43;;;;;;;;;;4733136;30;20067;-90
2020/12/16 08:19:37;;;;;;;9.77;4.07;;;;;;;;;;4728791;30;20045;-90
2020/12/16 08:22:21;;;;;;;13.63;3.97;;;8.50;99.90;;;;;;4699374;30;20053;-89
2020/12/16 08:24:59;;;;;;;;;;;8.50;99.90;;;;;;4701217;30;20518;-91
2020/12/16 08:27:45;;;;;;;9.77;4.00;;;;;;;;;;4727115;30;19923;-94
2020/12/16 08:30:52;;;;;;;25.38;7.07;;;;;;;;;;4724610;30;20057;-89
2020/12/16 08:33:25;;;;;;;12.02;4.10;;;8.50;99.90;;;;;;4695869;30;20095;-91
2020/12/16 08:36:09;;;;;;;14.82;4.75;;;;;;;;;;4725323;30;20057;-90
2020/12/16 08:39:04;;;;;;;16.00;3.22;;;;;;;;;;4723036;30;20065;-91
2020/12/16 08:45:05;;;;;;;7.97;2.80;;;;;;;;;;4748521;30;20057;-91
2020/12/16 08:47:58;;;;;;;10.52;3.60;;;;;;;;;;4747599;30;20056;-93
2020/12/16 08:50:53;;;;;;;12.35;4.80;;;;;;;;;;4741027;30;20060;-94
2020/12/16 08:53:51;;;;;;;10.05;4.00;;;;;;;;;;4747989;30;20024;-96
2020/12/16 08:57:03;;;;;;;14.13;3.50;;;;;;;;;;4858853;24;20058;-91
2020/12/16 09:01:12;;;;;;;12.43;4.13;;;8.90;99.90;;;;;;4768545;30;20213;-93
2020/12/16 09:03:50;;;;;;;17.55;3.75;;;;;;;;;;4755683;30;20052;-92
2020/12/16 09:06:27;;;;;;;9.55;3.85;;;;;;;;;;4766905;30;20066;-91
2020/12/16 09:09:16;;;;;;;15.27;3.42;;;;;;;;;;4788422;30;20048;-91
2020/12/16 09:12:15;;;;;;;13.45;4.95;;;8.90;99.90;;;;;;4768845;30;20767;-93
2020/12/16 09:15:04;;;;;;;12.10;3.67;;;8.90;99.90;;;;;;4753858;30;20059;-91
2020/12/16 09:17:42;;;;;;;29.05;5.38;;;;;;;;;;4746708;30;20044;-92
2020/12/16 09:20:13;;;;;;;7.40;4.10;;;;;;;;;;4785259;30;20044;-92
2020/12/16 09:22:44;;;;;;;13.00;3.75;;;;;;;;;;4741889;30;20070;-90
2020/12/16 09:25:32;;;;;;;13.73;5.15;;;8.90;99.90;;;;;;4775445;29;20070;-92
2020/12/16 09:28:21;;;;;;;13.45;5.38;;;;;;;;;;4739995;30;20056;-91
2020/12/16 09:31:03;;;;;;;9.80;3.38;;;;;;;;;;4760729;30;20059;-89
2020/12/16 09:33:36;;;;;;;14.32;3.60;;;;;;;;;;4761340;30;20072;-92
2020/12/16 09:36:27;;;;;;;17.00;3.83;;;;;;;;;;4774793;30;20505;-92
2020/12/16 09:39:19;;;;;;;10.43;3.55;;;9.10;99.90;;;;;;4776635;30;20048;-92
2020/12/16 09:42:09;;;;;;;25.77;4.70;;;;;;;;;;4779237;30;20068;-90
2020/12/16 09:44:44;;;;;;;10.98;3.63;;;;;;;;;;4754978;30;20047;-91
2020/12/16 09:48:06;;;;;;;8.40;3.72;;;9.20;99.90;;;;;;4784411;30;20068;-92
2020/12/16 09:50:41;;;;;;;14.15;4.22;;;;;;;;;;4755341;30;20064;-93
2020/12/16 09:53:42;;;;;;;11.50;3.38;;;;;;;;;;4763880;30;20066;-91
2020/12/16 09:56:48;;;;;;;24.90;3.42;;;;;;;;;;4760219;30;20614;-91
2020/12/16 09:59:24;;;;;;;10.57;3.08;;;;;;;;;;4764901;30;20055;-92
2020/12/16 10:01:57;;;;;;;16.23;4.07;;;;;;;;;;4762789;29;20059;-92
2020/12/16 10:04:32;;;;;;;12.95;4.35;;;;;;;;;;4753066;30;20052;-93
2020/12/16 10:07:04;;;;;;;5.40;3.28;;;;;;;;;;4757739;30;20060;-91
2020/12/16 10:10:08;;;;;;;19.00;5.57;;;9.40;99.90;;;;;;4749281;30;20059;-91
2020/12/16 10:12:38;;;;;;;11.88;3.00;;;;;;;;;;4774527;30;20051;-92
2020/12/16 10:15:15;;;;;;;8.57;2.40;;;;;;;;;;4753702;30;20079;-92
2020/12/16 10:17:46;;;;;;;11.02;3.10;;;;;;;;;;4751426;30;20050;-92
2020/12/16 10:20:20;;;;;;;24.80;6.25;;;;;;;;;;4735937;30;20067;-92
2020/12/16 10:22:54;;;;;;;9.05;3.40;;;;;;;;;;4773727;30;20062;-93
2020/12/16 10:25:30;;;;;;;10.82;3.33;;;;;;;;;;4749758;30;20052;-91
2020/12/16 10:28:09;;;;;;;12.75;2.60;;;;;;;;;;4740154;30;20059;-92
2020/12/16 10:31:04;;;;;;;14.70;5.28;;;9.90;99.90;;;;;;4762784;30;20059;-91
2020/12/16 10:33:33;;;;;;;24.02;4.43;;;;;;;;;;4748081;30;20059;-90
2020/12/16 10:36:03;;;;;;;13.80;3.90;;;10.00;99.90;;;;;;4753033;30;20060;-92
2020/12/16 10:38:36;;;;;;;10.15;2.60;;;;;;;;;;4744047;30;20520;-91
2020/12/16 10:41:07;;;;;;;11.50;2.72;;;;;;;;;;4753333;30;20052;-93
2020/12/16 10:43:44;;;;;;;9.50;4.00;;;9.90;99.90;;;;;;4745059;30;20056;-91
2020/12/16 10:46:16;;;;;;;12.60;3.30;;;;;;;;;;4770489;30;20052;-93
2020/12/16 10:48:50;;;;;;;5.50;2.03;;;;;;;;;;4759774;30;20086;-94
2020/12/16 10:51:20;;;;;;;11.48;3.05;;;;;;;;;;4734712;30;20048;-91
2020/12/16 10:54:02;;;;;;;17.38;4.15;;;;;;;;;;4761735;30;20068;-93
2020/12/16 10:56:36;;;;;;;8.00;2.85;;;9.90;99.90;;;;;;4751640;30;20325;-91
2020/12/16 10:59:10;;;;;;;10.48;3.38;;;;;;;;;;4721333;30;20060;-93
2020/12/16 11:01:44;;;;;;;11.23;3.38;;;;;;;;;;4750212;30;20072;-92
2020/12/16 11:04:13;;;;;;;17.40;3.80;;;;;;;;;;4761427;30;20052;-92
2020/12/16 11:06:54;;;;;;;11.50;3.03;;;10.10;99.90;;;;;;4764059;30;20072;-91
2020/12/16 11:09:31;;;;;;;11.23;4.30;;;;;;;;;;4755093;30;20036;-93
2020/12/16 11:12:40;;;;;;;12.60;2.58;;;;;;;;;;4744480;30;20063;-92
2020/12/16 11:15:34;;;;;;;19.38;5.15;;;;;;;;;;4759491;30;20039;-90
2020/12/16 11:18:02;;;;;;;19.00;2.78;;;;;;;;;;4746178;30;20055;-91
2020/12/16 11:20:34;;;;;;;17.77;4.03;;;;;;;;;;4754524;30;20058;-91
2020/12/16 11:23:18;;;;;;;16.10;5.45;;;;;;;;;;4741500;30;20066;-93
2020/12/16 11:25:49;;;;;;;;;;;10.30;99.90;;;;;;4769221;30;20056;-93
2020/12/16 11:28:19;;;;;;;12.07;3.65;;;;;;;;;;4748323;30;19956;-90
2020/12/16 11:31:00;;;;;;;8.75;2.42;;;;;;;;;;4753860;30;20047;-93
2020/12/16 11:33:44;;;;;;;10.15;2.70;;;;;;;;;;4764823;24;20064;-91
2020/12/16 11:39:56;;;;;;;;;;;10.70;99.90;;;;;;4743092;30;20070;-96
2020/12/16 11:43:15;;;;;;;11.40;3.08;;;;;;;;;;4788260;30;19926;-93
2020/12/16 11:46:02;;;;;;;7.20;3.53;;;;;;;;;;4747541;30;20052;-93
2020/12/16 11:49:20;;;;;;;7.90;2.35;;;;;;;;;;4774656;30;20048;-93
2020/12/16 11:52:20;;;;;;;8.32;2.72;;;;;;;;;;4771795;30;20058;-95
2020/12/16 11:55:15;;;;;;;11.63;3.70;;;;;;;;;;4773067;30;20086;-93
2020/12/16 11:58:22;;;;;;;8.98;3.10;;;;;;;;;;4757147;30;20538;-94
2020/12/16 12:01:42;;;;;;;10.35;2.40;;;;;;;;;;4763807;30;20055;-94
2020/12/16 12:04:37;;;;;;;11.20;4.03;;;;;;;;;;4775233;30;20052;-93
2020/12/16 12:07:31;;;;;;;6.97;3.08;;;;;;;;;;4771296;30;20051;-94
2020/12/16 12:10:22;;;;;;;4.68;2.50;;;;;;;;;;4760982;30;20036;-94
2020/12/16 12:21:06;;;;;;;12.57;3.08;;;;;;;;;;4741331;30;20048;-94
2020/12/16 12:24:22;;;;;;;10.23;3.75;;;;;;;;;;4767484;30;20075;-94
2020/12/16 12:27:09;;;;;;;3.92;3.13;;;;;;;;;;4733424;30;20061;-94
2020/12/16 12:30:07;;;;;;;9.38;2.35;;;;;;;;;;4786115;24;20052;-92
2020/12/16 12:33:07;;;;;;;8.77;3.92;;;;;;;;;;4739289;30;20055;-92
2020/12/16 12:36:27;;;;;;;9.43;2.88;;;;;;;;;;4753287;30;20044;-91
2020/12/16 12:39:43;;;;;;;8.45;2.58;;;11.10;99.90;;;;;;4732257;30;20036;-94
2020/12/16 12:43:52;;;;;;;10.23;3.08;;;;;;;;;;4769982;30;20060;-93
2020/12/16 12:47:08;;;;;;;9.07;2.85;;;;;;;;;;4760364;30;20071;-93
2020/12/16 12:50:35;;;;;;;3.40;2.20;;;;;;;;;;4756421;30;20060;-93
2020/12/16 12:54:03;;;;;;;9.00;3.47;;;;;;;;;;4773294;30;20054;-94
2020/12/16 12:57:12;;;;;;;5.78;2.60;;;;;;;;;;4763651;30;20062;-92
2020/12/16 13:00:52;;;;;;;11.13;3.38;;;;;;;;;;4773415;30;20060;-92
2020/12/16 13:04:09;;;;;;;14.32;3.72;;;;;;;;;;4757008;30;20060;-94
2020/12/16 13:07:32;;;;;;;13.45;3.42;;;;;;;;;;4719852;30;20056;-93
2020/12/16 13:17:56;;;;;;;8.00;2.30;;;;;;;;;;4828794;24;20052;-93
2020/12/16 13:21:38;;;;;;;9.35;3.20;;;;;;;;;;4736780;30;20049;-92
2020/12/16 13:25:29;;;;;;;12.18;2.95;;;;;;;;;;4730185;30;20048;-94
2020/12/16 13:29:44;;;;;;;5.00;2.63;;;;;;;;;;4716942;30;20050;-94
2020/12/16 13:36:13;;;;;;;7.53;3.03;;;;;;;;;;4733309;30;20053;-94
2020/12/16 13:39:36;;;;;;;11.07;4.15;;;;;;;;;;4713715;30;20057;-92
2020/12/16 13:43:14;;;;;;;7.65;2.97;;;;;;;;;;4702941;30;20075;-93
2020/12/16 13:47:18;;;;;;;9.00;3.05;;;;;;;;;;4703730;30;20176;-93
2020/12/16 13:51:09;;;;;;;12.75;3.00;;;;;;;;;;4689825;30;20062;-94
2020/12/16 13:54:30;;;;;;;10.27;4.00;;;;;;;;;;4709408;30;20053;-93
2020/12/16 14:08:35;;;;;;;4.82;2.55;;;;;;;;;;4722759;30;20062;-91
2020/12/16 14:12:12;;;;;;;9.60;3.40;;;;;;;;;;4750188;30;20058;-94
2020/12/16 14:15:03;;;;;;;9.82;3.38;;;;;;;;;;4752069;30;20060;-92
2020/12/16 14:18:00;;;;;;;6.03;2.05;;;;;;;;;;4750825;30;20057;-92
2020/12/16 14:20:43;;;;;;;13.88;4.55;;;;;;;;;;4738423;30;20068;-91
2020/12/16 14:23:19;;;;;;;12.10;4.88;;;;;;;;;;4744668;30;20056;-92
2020/12/16 14:26:29;;;;;;;12.20;2.95;;;;;;;;;;4757117;30;20052;-93
2020/12/16 14:29:17;;;;;;;15.50;3.08;;;;;;;;;;4762917;30;20067;-92
2020/12/16 14:32:07;;;;;;;14.80;5.53;;;;;;;;;;4759913;30;20060;-92
2020/12/16 14:35:00;;;;;;;8.75;5.22;;;11.00;99.90;;;;;;4715574;30;20075;-92
2020/12/16 14:37:54;;;;;;;12.82;3.92;;;;;;;;;;4740194;30;20061;-90
2020/12/16 14:40:59;;;;;;;8.23;3.25;;;;;;;;;;4738134;30;20037;-93
2020/12/16 14:45:15;;;;;;;16.13;3.28;;;11.00;99.90;;;;;;4726716;30;20067;-93
2020/12/16 14:49:06;;;;;;;12.02;3.67;;;;;;;;;;4749584;30;20073;-94
2020/12/16 14:52:23;;;;;;;11.38;3.28;;;;;;;;;;4758573;30;20061;-92
2020/12/16 14:55:43;;;;;;;7.13;4.30;;;;;;;;;;4764772;30;20033;-92
2020/12/16 14:58:40;;;;;;;8.50;3.47;;;;;;;;;;4722986;30;20051;-94
2020/12/16 15:01:29;;;;;;;9.80;2.97;;;;;;;;;;4764986;30;20067;-94
2020/12/16 15:09:13;;;;;;;18.50;4.35;;;;;;;;;;4742884;30;20040;-94
2020/12/16 15:12:26;;;;;;;13.85;6.15;;;;;;;;;;4711367;30;20068;-93
2020/12/16 15:22:04;;;;;;;10.43;4.15;;;;;;;;;;4756146;30;20048;-95
2020/12/16 15:25:30;;;;;;;10.55;3.83;;;;;;;;;;4851168;24;20014;-91
2020/12/16 15:34:46;;;;;;;13.60;4.38;;;;;;;;;;4759215;29;20045;-93
2020/12/16 15:38:25;;;;;;;8.55;4.55;;;;;;;;;;4759153;30;20051;-93
2020/12/16 16:07:49;;;;;;;9.52;3.80;;;;;;;;;;4763819;30;20053;-94
2020/12/16 16:10:40;;;;;;;11.95;3.13;;;;;;;;;;4760808;30;20056;-95
2020/12/16 16:18:58;;;;;;;13.05;3.78;;;;;;;;;;4788739;30;20044;-93
2020/12/16 16:26:28;;;;;;;7.88;3.58;;;9.90;99.90;;;;;;4736518;30;20068;-94
2020/12/16 16:33:37;;;;;;;11.40;3.60;;;;;;;;;;4801767;24;20420;-93
2020/12/16 16:37:04;;;;;;;8.52;3.15;;;;;;;;;;4763372;30;20057;-93
2020/12/16 16:40:25;;;;;;;13.15;5.85;;;10.00;99.90;;;;;;4892003;24;20032;-94
2020/12/16 16:51:53;;;;;;;11.45;4.57;;;;;;;;;;4743966;30;20057;-93
2020/12/16 16:55:30;;;;;;;;;;;10.00;99.90;;;;;;4737838;30;20048;-93
2020/12/16 16:58:57;;;;;;;10.80;4.13;;;;;;;;;;4725227;30;19921;-92
2020/12/16 17:02:21;;;;;;;15.73;4.63;;;;;;;;;;4731355;30;20033;-94
2020/12/16 17:05:44;;;;;;;15.57;4.20;;;9.80;99.90;;;;;;4842534;24;20055;-92
2020/12/16 17:09:09;;;;;;;13.57;5.00;;;;;;;;;;4714428;30;20064;-91
2020/12/16 17:13:01;;;;;;;16.45;4.07;;;9.90;99.90;;;;;;4753851;30;20048;-93
2020/12/16 17:17:02;;;;;;;16.05;3.90;;;;;;;;;;4741110;30;20512;-95
2020/12/16 17:24:11;;;;;;;6.95;2.80;;;;;;;;;;4775796;24;20044;-93
2020/12/16 17:27:24;;;;;;;6.22;3.20;;;;;;;;;;4746480;30;20055;-94
2020/12/16 17:37:28;;;;;;;7.20;2.72;;;9.70;99.90;;;;;;3997509;24;20049;-93
2020/12/16 17:40:41;;;;;;;9.43;2.95;;;;;;;;;;4745689;30;20062;-94
2020/12/16 17:44:15;;;;;;;10.25;3.55;;;9.80;99.90;;;;;;4780077;29;20060;-94
2020/12/16 17:52:02;;;;;;;10.07;3.30;;;;;;;;;;4768232;30;20055;-94
2020/12/16 18:01:20;;;;;;;7.35;2.45;;;9.70;99.90;;;;;;4669281;30;20061;-96